sensor_id;sensor_type;location;lat;lon;timestamp;temperature;humidity
17128;DHT22;8679;50.842;4.322;2023-12-29T00:40:53;11.40;99.90
17128;DHT22;8679;50.842;4.322;2023-12-29T02:43:25;11.00;99.90
17128;DHT22;8679;50.842;4.322;2023-12-29T02:45:50;11.20;99.90
17128;DHT22;8679;50.842;4.322;2023-12-29T02:48:16;11.20;99.90
17128;DHT22;8679;50.842;4.322;2023-12-29T02:50:42;11.20;99.90
17128;DHT22;8679;50.842;4.322;2023-12-29T03:02:52;11.20;99.90
17128;DHT22;8679;50.842;4.322;2023-12-29T05:34:03;11.20;99.90
17128;DHT22;8679;50.842;4.322;2023-12-29T18:36:16;10.50;99.90
17128;DHT22;8679;50.842;4.322;2023-12-29T18:38:41;10.80;99.90
17128;DHT22;8679;50.842;4.322;2023-12-29T18:41:08;10.80;99.90
17128;DHT22;8679;50.842;4.322;2023-12-29T18:43:35;10.80;99.90
17128;DHT22;8679;50.842;4.322;2023-12-29T18:46:07;10.80;99.90
17128;DHT22;8679;50.842;4.322;2023-12-29T18:48:34;10.70;99.90
17128;DHT22;8679;50.842;4.322;2023-12-29T18:51:01;10.70;99.90
17128;DHT22;8679;50.842;4.322;2023-12-29T18:53:27;10.60;99.90
17128;DHT22;8679;50.842;4.322;2023-12-29T18:55:52;10.60;99.90
17128;DHT22;8679;50.842;4.322;2023-12-29T18:58:18;10.60;99.90
17128;DHT22;8679;50.842;4.322;2023-12-29T19:00:44;10.60;99.90
17128;DHT22;8679;50.842;4.322;2023-12-29T19:03:11;10.60;99.90
17128;DHT22;8679;50.842;4.322;2023-12-29T19:05:36;10.50;99.90
17128;DHT22;8679;50.842;4.322;2023-12-29T19:08:02;10.60;99.90
17128;DHT22;8679;50.842;4.322;2023-12-29T19:10:28;10.50;99.90
17128;DHT22;8679;50.842;4.322;2023-12-29T19:12:57;10.50;99.90
17128;DHT22;8679;50.842;4.322;2023-12-29T19:15:23;10.50;99.90
17128;DHT22;8679;50.842;4.322;2023-12-29T19:17:49;10.50;99.90
17128;DHT22;8679;50.842;4.322;2023-12-29T19:20:15;10.40;99.90
17128;DHT22;8679;50.842;4.322;2023-12-29T19:22:40;10.40;99.90
17128;DHT22;8679;50.842;4.322;2023-12-29T19:25:12;10.50;99.90
17128;DHT22;8679;50.842;4.322;2023-12-29T19:27:41;10.50;99.90
17128;DHT22;8679;50.842;4.322;2023-12-29T19:30:07;10.40;99.90
17128;DHT22;8679;50.842;4.322;2023-12-29T19:32:35;10.40;99.90
17128;DHT22;8679;50.842;4.322;2023-12-29T19:35:00;10.40;99.90
17128;DHT22;8679;50.842;4.322;2023-12-29T19:37:26;10.40;99.90
17128;DHT22;8679;50.842;4.322;2023-12-29T19:39:52;10.30;99.90
17128;DHT22;8679;50.842;4.322;2023-12-29T19:42:17;10.30;99.90
17128;DHT22;8679;50.842;4.322;2023-12-29T19:44:43;10.30;99.90
17128;DHT22;8679;50.842;4.322;2023-12-29T19:47:09;10.30;99.90
17128;DHT22;8679;50.842;4.322;2023-12-29T19:49:34;10.40;99.90
17128;DHT22;8679;50.842;4.322;2023-12-29T19:52:00;10.40;99.90
17128;DHT22;8679;50.842;4.322;2023-12-29T19:54:26;10.30;99.90
17128;DHT22;8679;50.842;4.322;2023-12-29T19:56:51;10.30;99.90
17128;DHT22;8679;50.842;4.322;2023-12-29T19:59:18;10.40;99.90
17128;DHT22;8679;50.842;4.322;2023-12-29T20:01:44;10.30;99.90
17128;DHT22;8679;50.842;4.322;2023-12-29T20:04:13;10.30;99.90
17128;DHT22;8679;50.842;4.322;2023-12-29T20:06:39;10.30;99.90
17128;DHT22;8679;50.842;4.322;2023-12-29T20:09:05;10.30;99.90
17128;DHT22;8679;50.842;4.322;2023-12-29T20:11:39;10.30;99.90
17128;DHT22;8679;50.842;4.322;2023-12-29T20:14:06;10.30;99.90
17128;DHT22;8679;50.842;4.322;2023-12-29T20:16:32;10.20;99.90
17128;DHT22;8679;50.842;4.322;2023-12-29T20:18:58;10.20;99.90
17128;DHT22;8679;50.842;4.322;2023-12-29T20:21:26;10.20;99.90
17128;DHT22;8679;50.842;4.322;2023-12-29T20:23:53;10.30;99.90
17128;DHT22;8679;50.842;4.322;2023-12-29T20:26:23;10.20;99.90
17128;DHT22;8679;50.842;4.322;2023-12-29T20:28:50;10.20;99.90
17128;DHT22;8679;50.842;4.322;2023-12-29T20:31:24;10.10;99.90
17128;DHT22;8679;50.842;4.322;2023-12-29T20:33:50;10.10;99.90
17128;DHT22;8679;50.842;4.322;2023-12-29T20:36:17;10.00;99.90
17128;DHT22;8679;50.842;4.322;2023-12-29T20:38:43;10.00;99.90
17128;DHT22;8679;50.842;4.322;2023-12-29T20:41:10;10.00;99.90
17128;DHT22;8679;50.842;4.322;2023-12-29T20:43:36;10.00;99.90
17128;DHT22;8679;50.842;4.322;2023-12-29T20:46:01;10.00;99.90
17128;DHT22;8679;50.842;4.322;2023-12-29T20:48:27;9.90;99.90
17128;DHT22;8679;50.842;4.322;2023-12-29T20:50:53;9.90;99.90
17128;DHT22;8679;50.842;4.322;2023-12-29T20:53:18;9.80;99.90
17128;DHT22;8679;50.842;4.322;2023-12-29T20:55:44;9.80;99.90
17128;DHT22;8679;50.842;4.322;2023-12-29T20:58:12;9.80;99.90
17128;DHT22;8679;50.842;4.322;2023-12-29T21:00:38;9.80;99.90
17128;DHT22;8679;50.842;4.322;2023-12-29T21:03:04;9.80;99.90
17128;DHT22;8679;50.842;4.322;2023-12-29T21:05:32;9.80;99.90
17128;DHT22;8679;50.842;4.322;2023-12-29T21:07:58;9.80;99.90
17128;DHT22;8679;50.842;4.322;2023-12-29T21:10:24;9.80;99.90
17128;DHT22;8679;50.842;4.322;2023-12-29T21:12:49;9.80;99.90
17128;DHT22;8679;50.842;4.322;2023-12-29T21:15:15;9.90;99.90
17128;DHT22;8679;50.842;4.322;2023-12-29T21:17:41;9.80;99.90
17128;DHT22;8679;50.842;4.322;2023-12-29T21:20:07;9.90;99.90
17128;DHT22;8679;50.842;4.322;2023-12-29T21:22:37;9.90;99.90
17128;DHT22;8679;50.842;4.322;2023-12-29T21:25:03;9.90;99.90
17128;DHT22;8679;50.842;4.322;2023-12-29T21:27:29;10.00;99.90
17128;DHT22;8679;50.842;4.322;2023-12-29T21:29:58;10.10;99.90
17128;DHT22;8679;50.842;4.322;2023-12-29T21:32:24;10.10;99.90
17128;DHT22;8679;50.842;4.322;2023-12-29T21:34:55;10.10;99.90
17128;DHT22;8679;50.842;4.322;2023-12-29T21:37:20;10.00;99.90
17128;DHT22;8679;50.842;4.322;2023-12-29T21:39:48;10.10;99.90
17128;DHT22;8679;50.842;4.322;2023-12-29T21:42:14;10.10;99.90
17128;DHT22;8679;50.842;4.322;2023-12-29T21:44:40;10.10;99.90
17128;DHT22;8679;50.842;4.322;2023-12-29T21:47:07;10.10;99.90
17128;DHT22;8679;50.842;4.322;2023-12-29T21:49:33;10.00;99.90
17128;DHT22;8679;50.842;4.322;2023-12-29T21:52:00;10.10;99.90
17128;DHT22;8679;50.842;4.322;2023-12-29T21:54:26;10.00;99.90
17128;DHT22;8679;50.842;4.322;2023-12-29T21:56:52;10.00;99.90
17128;DHT22;8679;50.842;4.322;2023-12-29T21:59:19;10.00;99.90
17128;DHT22;8679;50.842;4.322;2023-12-29T22:01:46;9.90;99.90
17128;DHT22;8679;50.842;4.322;2023-12-29T22:04:12;9.90;99.90
17128;DHT22;8679;50.842;4.322;2023-12-29T22:06:38;9.90;99.90
17128;DHT22;8679;50.842;4.322;2023-12-29T22:09:04;9.90;99.90
17128;DHT22;8679;50.842;4.322;2023-12-29T22:11:30;9.90;99.90
17128;DHT22;8679;50.842;4.322;2023-12-29T22:13:56;9.90;99.90
17128;DHT22;8679;50.842;4.322;2023-12-29T22:16:22;9.90;99.90
17128;DHT22;8679;50.842;4.322;2023-12-29T22:18:48;9.90;99.90
17128;DHT22;8679;50.842;4.322;2023-12-29T22:21:18;9.90;99.90
17128;DHT22;8679;50.842;4.322;2023-12-29T22:23:45;9.90;99.90
17128;DHT22;8679;50.842;4.322;2023-12-29T22:26:12;9.80;99.90
17128;DHT22;8679;50.842;4.322;2023-12-29T22:28:38;9.70;99.90
17128;DHT22;8679;50.842;4.322;2023-12-29T22:31:03;9.80;99.90
17128;DHT22;8679;50.842;4.322;2023-12-29T22:33:29;9.70;99.90
17128;DHT22;8679;50.842;4.322;2023-12-29T22:35:55;9.70;99.90
17128;DHT22;8679;50.842;4.322;2023-12-29T22:38:21;9.70;99.90
17128;DHT22;8679;50.842;4.322;2023-12-29T22:40:46;9.60;99.90
17128;DHT22;8679;50.842;4.322;2023-12-29T22:43:12;9.60;99.90
17128;DHT22;8679;50.842;4.322;2023-12-29T22:45:40;9.70;99.90
17128;DHT22;8679;50.842;4.322;2023-12-29T22:48:06;9.60;99.90
17128;DHT22;8679;50.842;4.322;2023-12-29T22:50:32;9.60;99.90
17128;DHT22;8679;50.842;4.322;2023-12-29T22:52:57;9.60;99.90
17128;DHT22;8679;50.842;4.322;2023-12-29T22:55:23;9.60;99.90
17128;DHT22;8679;50.842;4.322;2023-12-29T22:57:49;9.60;99.90
17128;DHT22;8679;50.842;4.322;2023-12-29T23:00:15;9.60;99.90
17128;DHT22;8679;50.842;4.322;2023-12-29T23:02:46;9.60;99.90
17128;DHT22;8679;50.842;4.322;2023-12-29T23:05:13;9.50;99.90
17128;DHT22;8679;50.842;4.322;2023-12-29T23:07:39;9.60;99.90
17128;DHT22;8679;50.842;4.322;2023-12-29T23:10:05;9.50;99.90
17128;DHT22;8679;50.842;4.322;2023-12-29T23:12:31;9.50;99.90
17128;DHT22;8679;50.842;4.322;2023-12-29T23:14:56;9.60;99.90
17128;DHT22;8679;50.842;4.322;2023-12-29T23:17:22;9.60;99.90
17128;DHT22;8679;50.842;4.322;2023-12-29T23:19:48;9.70;99.90
17128;DHT22;8679;50.842;4.322;2023-12-29T23:22:13;9.60;99.90
17128;DHT22;8679;50.842;4.322;2023-12-29T23:24:39;9.60;99.90
17128;DHT22;8679;50.842;4.322;2023-12-29T23:27:05;9.70;99.90
17128;DHT22;8679;50.842;4.322;2023-12-29T23:29:30;9.60;99.90
17128;DHT22;8679;50.842;4.322;2023-12-29T23:31:56;9.60;99.90
17128;DHT22;8679;50.842;4.322;2023-12-29T23:34:22;9.60;99.90
17128;DHT22;8679;50.842;4.322;2023-12-29T23:36:47;9.50;99.90
17128;DHT22;8679;50.842;4.322;2023-12-29T23:39:13;9.50;99.90
17128;DHT22;8679;50.842;4.322;2023-12-29T23:41:39;9.50;99.90
17128;DHT22;8679;50.842;4.322;2023-12-29T23:44:04;9.60;99.90
17128;DHT22;8679;50.842;4.322;2023-12-29T23:46:30;9.50;99.90
17128;DHT22;8679;50.842;4.322;2023-12-29T23:48:56;9.50;99.90
17128;DHT22;8679;50.842;4.322;2023-12-29T23:51:22;9.50;99.90
17128;DHT22;8679;50.842;4.322;2023-12-29T23:53:48;9.50;99.90
17128;DHT22;8679;50.842;4.322;2023-12-29T23:56:13;9.50;99.90
17128;DHT22;8679;50.842;4.322;2023-12-29T23:58:40;9.50;99.90
